Terminal Aerodrome Forecast
Issued by NWS Wakefield, VA

Home | Current Version | Previous Version | Text Only | Print | Product List | Glossary On
Versions: 1 2 3 4 5 6 7 8 9 10 11 12 13 14 15
000
FTUS41 KAKQ 291200 AAA
TAFRIC
TAF AMD
KRIC 291221Z 2912/3012 02008KT 6SM -RA BR SCT010 OVC015
      TEMPO 2912/2915 OVC008
     FM291900 04006KT 6SM -RA BR BKN012 OVC025
     FM300300 02005KT P6SM -SHRA SCT015 BKN030
     FM300900 02008KT P6SM BKN005 OVC015=

USA.gov is the U.S. government's official web portal to all federal, state and local government web resources and services.